Time;durP1;ratioP1;P1;durP2;ratioP2;P2;SDS_P1;SDS_P2;PMS_P1;PMS_P2;Temp;Humidity;BMP_temperature;BMP_pressure;BME280_temperature;BME280_humidity;BME280_pressure;Samples;Min_cycle;Max_cycle;Signal;HPM_P1;HPM_P2
2021/06/05 00:01:36;;;;;;;1.97;1.60;;;18.50;92.80;;;;;;5092000;28;20646;-85
2021/06/05 00:04:06;;;;;;;1.50;1.40;;;18.40;93.20;;;;;;5090771;28;21038;-84
2021/06/05 00:06:33;;;;;;;1.40;1.30;;;18.40;93.70;;;;;;5075883;28;20977;-85
2021/06/05 00:09:01;;;;;;;1.60;1.50;;;18.40;93.90;;;;;;5103184;28;20967;-85
2021/06/05 00:11:30;;;;;;;1.33;1.23;;;18.20;93.30;;;;;;5081691;28;20624;-85
2021/06/05 00:14:01;;;;;;;1.73;1.40;;;18.20;94.10;;;;;;5090806;28;20969;-85
2021/06/05 00:16:32;;;;;;;1.87;1.73;;;18.10;94.30;;;;;;5091251;28;21580;-85
2021/06/05 00:18:58;;;;;;;1.40;1.30;;;18.20;94.30;;;;;;5091615;28;20639;-85
2021/06/05 00:21:27;;;;;;;1.67;1.57;;;18.20;94.40;;;;;;5091118;28;20987;-85
2021/06/05 00:23:55;;;;;;;4.67;1.60;;;18.10;94.40;;;;;;5090918;28;20630;-85
2021/06/05 00:26:21;;;;;;;1.40;1.30;;;18.10;94.60;;;;;;5071489;28;21217;-84
2021/06/05 00:28:47;;;;;;;1.90;1.60;;;18.10;94.50;;;;;;5070693;28;21153;-85
2021/06/05 00:31:14;;;;;;;1.80;1.70;;;18.10;94.70;;;;;;5071156;28;20683;-85
2021/06/05 00:33:40;;;;;;;1.53;1.43;;;18.10;94.80;;;;;;5070983;28;20626;-86
2021/06/05 00:36:09;;;;;;;2.60;2.07;;;18.00;95.00;;;;;;5070662;28;20620;-85
2021/06/05 00:38:36;;;;;;;2.13;1.60;;;18.00;95.30;;;;;;5070746;28;21354;-83
2021/06/05 00:41:05;;;;;;;1.60;1.50;;;17.80;95.40;;;;;;5070766;28;20646;-83
2021/06/05 00:43:38;;;;;;;2.50;2.30;;;17.80;95.90;;;;;;5070945;28;20621;-83
2021/06/05 00:46:04;;;;;;;2.50;2.00;;;17.80;96.30;;;;;;5070415;28;20664;-83
2021/06/05 00:48:31;;;;;;;1.80;1.70;;;17.70;96.40;;;;;;5067036;28;20643;-82
2021/06/05 00:50:57;;;;;;;1.40;1.30;;;17.80;96.80;;;;;;5069205;28;20630;-83
2021/06/05 00:53:28;;;;;;;1.40;1.30;;;17.80;96.60;;;;;;5069224;28;20998;-82
2021/06/05 00:55:59;;;;;;;1.70;1.60;;;17.70;96.50;;;;;;5070353;28;20738;-82
2021/06/05 00:58:28;;;;;;;2.27;1.70;;;17.70;96.70;;;;;;5071487;28;20648;-82
2021/06/05 01:00:58;;;;;;;1.67;1.57;;;17.70;96.80;;;;;;5090494;28;21169;-82
2021/06/05 01:03:27;;;;;;;2.10;1.90;;;17.70;96.80;;;;;;5091203;28;20658;-83
2021/06/05 01:06:02;;;;;;;3.80;1.90;;;17.60;97.10;;;;;;5072962;28;20745;-82
2021/06/05 01:08:36;;;;;;;2.13;1.93;;;17.50;97.20;;;;;;5070720;28;20622;-82
2021/06/05 01:11:16;;;;;;;1.57;1.47;;;17.50;97.10;;;;;;5080336;28;21204;-83
2021/06/05 01:13:52;;;;;;;1.70;1.50;;;17.40;97.20;;;;;;5070596;28;20610;-83
2021/06/05 01:16:22;;;;;;;1.60;1.50;;;17.20;97.40;;;;;;5069060;28;21227;-83
2021/06/05 01:18:54;;;;;;;2.07;1.87;;;17.30;97.70;;;;;;5070113;28;20610;-83
2021/06/05 01:21:50;;;;;;;1.60;1.50;;;17.40;97.40;;;;;;5070209;28;20969;-82
2021/06/05 01:24:29;;;;;;;1.53;1.43;;;17.30;97.30;;;;;;5071933;28;20619;-85
2021/06/05 01:27:01;;;;;;;2.00;1.80;;;17.20;97.50;;;;;;5090791;28;20612;-85
2021/06/05 01:29:32;;;;;;;2.70;1.60;;;17.10;97.90;;;;;;5090918;28;20692;-85
2021/06/05 01:32:05;;;;;;;1.60;1.50;;;17.10;97.70;;;;;;5090553;28;20647;-84
2021/06/05 01:34:38;;;;;;;1.63;1.53;;;17.20;97.90;;;;;;5090220;28;21196;-85
2021/06/05 01:37:08;;;;;;;1.70;1.60;;;17.10;98.50;;;;;;5089976;28;20767;-85
2021/06/05 01:39:39;;;;;;;2.23;2.03;;;17.20;97.80;;;;;;5077576;28;20633;-84
2021/06/05 01:42:11;;;;;;;2.90;1.80;;;17.10;97.80;;;;;;5070405;28;21257;-84
2021/06/05 01:44:46;;;;;;;1.57;1.47;;;17.20;97.70;;;;;;5069616;28;20755;-84
2021/06/05 01:47:15;;;;;;;2.10;1.90;;;17.30;97.40;;;;;;5070583;28;20617;-85
2021/06/05 01:49:43;;;;;;;2.17;1.90;;;17.30;97.30;;;;;;5070214;28;21184;-84
2021/06/05 01:52:13;;;;;;;3.60;1.73;;;17.10;97.30;;;;;;5070252;28;20618;-84
2021/06/05 01:54:46;;;;;;;1.83;1.67;;;17.20;97.40;;;;;;5069819;28;20609;-85
2021/06/05 01:57:18;;;;;;;1.80;1.70;;;17.30;96.80;;;;;;5070295;28;20966;-85
2021/06/05 01:59:46;;;;;;;1.43;1.33;;;17.30;96.30;;;;;;5065121;28;20656;-85
2021/06/05 02:02:15;;;;;;;1.63;1.53;;;17.30;96.50;;;;;;5077718;28;20617;-85
2021/06/05 02:04:43;;;;;;;1.90;1.57;;;17.30;96.10;;;;;;5067356;28;20654;-85
2021/06/05 02:07:11;;;;;;;1.87;1.43;;;17.30;96.30;;;;;;5070388;28;20613;-85
2021/06/05 02:09:40;;;;;;;1.33;1.23;;;17.30;96.20;;;;;;5074684;28;20655;-85
2021/06/05 02:12:17;;;;;;;2.63;1.20;;;17.20;96.30;;;;;;5081769;28;20698;-85
2021/06/05 02:14:50;;;;;;;1.30;1.20;;;17.20;96.20;;;;;;5069456;28;20634;-85
2021/06/05 02:17:20;;;;;;;1.70;1.40;;;17.20;96.30;;;;;;5069204;28;20626;-85
2021/06/05 02:19:57;;;;;;;1.60;1.40;;;17.20;96.50;;;;;;5069309;28;20605;-85
2021/06/05 02:22:30;;;;;;;1.70;1.40;;;17.20;96.40;;;;;;5086247;28;20645;-85
2021/06/05 02:25:00;;;;;;;3.73;1.53;;;17.20;96.60;;;;;;5089205;28;20641;-85
2021/06/05 02:27:31;;;;;;;2.10;1.77;;;17.20;96.60;;;;;;5090052;28;20708;-85
2021/06/05 02:30:05;;;;;;;1.73;1.63;;;17.10;96.80;;;;;;5092802;28;20707;-85
2021/06/05 02:32:34;;;;;;;1.80;1.70;;;17.10;97.00;;;;;;5093608;28;20609;-85
2021/06/05 02:35:02;;;;;;;1.40;1.30;;;17.10;97.10;;;;;;5093575;28;20640;-85
2021/06/05 02:37:30;;;;;;;1.57;1.43;;;17.10;96.70;;;;;;5093236;28;20625;-85
2021/06/05 02:39:59;;;;;;;1.40;1.30;;;17.10;96.90;;;;;;5089177;28;20612;-84
2021/06/05 02:42:26;;;;;;;2.60;1.37;;;17.20;97.00;;;;;;5094012;28;20604;-85
2021/06/05 02:44:56;;;;;;;2.30;1.30;;;17.20;96.80;;;;;;5093265;28;20644;-85
2021/06/05 02:47:25;;;;;;;1.77;1.45;;;17.20;96.80;;;;;;5093629;28;20729;-85
2021/06/05 02:49:52;;;;;;;1.77;1.67;;;17.20;96.50;;;;;;5093376;28;20195;-84
2021/06/05 02:52:29;;;;;;;1.93;1.57;;;17.20;96.40;;;;;;5093829;28;20606;-85
2021/06/05 02:54:58;;;;;;;1.40;1.30;;;17.20;96.50;;;;;;5092957;28;20732;-85
2021/06/05 02:57:25;;;;;;;2.83;1.67;;;17.20;96.30;;;;;;5093558;28;20610;-85
2021/06/05 02:59:51;;;;;;;1.20;1.10;;;17.30;96.30;;;;;;5080614;28;20614;-84
2021/06/05 03:02:19;;;;;;;1.70;1.60;;;17.20;96.30;;;;;;5073195;28;20619;-85
2021/06/05 03:04:45;;;;;;;2.17;1.30;;;17.30;96.40;;;;;;5071756;28;20622;-85
2021/06/05 03:07:12;;;;;;;2.57;1.47;;;17.30;96.00;;;;;;5073241;28;20619;-84
2021/06/05 03:09:39;;;;;;;1.80;1.63;;;17.20;95.80;;;;;;5071838;28;20752;-85
2021/06/05 03:12:08;;;;;;;1.70;1.60;;;17.30;95.80;;;;;;5083210;28;20628;-84
2021/06/05 03:14:36;;;;;;;1.63;1.47;;;17.30;95.60;;;;;;5072502;28;20621;-85
2021/06/05 03:17:03;;;;;;;2.30;1.43;;;17.30;95.40;;;;;;5093837;28;20612;-85
2021/06/05 03:19:32;;;;;;;1.10;1.10;;;17.30;95.40;;;;;;5096067;27;20659;-84
2021/06/05 03:21:58;;;;;;;1.67;1.57;;;17.20;95.80;;;;;;5093403;28;21016;-84
2021/06/05 03:24:25;;;;;;;5.43;1.60;;;17.30;95.60;;;;;;5092436;28;20977;-85
2021/06/05 03:26:53;;;;;;;3.63;2.20;;;17.40;95.50;;;;;;5092569;28;20659;-84
2021/06/05 03:29:19;;;;;;;1.87;1.73;;;17.40;95.50;;;;;;5092898;28;20613;-84
2021/06/05 03:31:46;;;;;;;4.00;1.50;;;17.40;95.70;;;;;;5092358;28;20640;-84
2021/06/05 03:34:13;;;;;;;1.40;1.30;;;17.30;95.50;;;;;;5092654;28;20611;-84
2021/06/05 03:36:41;;;;;;;2.67;1.80;;;17.30;95.70;;;;;;5092411;28;20624;-84
2021/06/05 03:39:09;;;;;;;1.53;1.30;;;17.40;95.60;;;;;;5083472;28;20626;-85
2021/06/05 03:41:38;;;;;;;1.60;1.50;;;17.40;95.50;;;;;;5071243;28;20609;-85
2021/06/05 03:44:06;;;;;;;2.93;1.60;;;17.40;95.50;;;;;;5072297;28;20614;-85
2021/06/05 03:46:34;;;;;;;1.70;1.60;;;17.30;95.80;;;;;;5071802;28;21004;-85
2021/06/05 03:49:01;;;;;;;1.73;1.13;;;17.20;95.50;;;;;;5072432;28;20622;-85
2021/06/05 03:51:28;;;;;;;1.90;1.50;;;17.30;95.70;;;;;;5072107;28;20673;-85
2021/06/05 03:53:56;;;;;;;1.67;1.57;;;17.30;95.50;;;;;;5072362;28;20803;-84
2021/06/05 03:56:23;;;;;;;3.60;1.40;;;17.30;95.40;;;;;;5071510;28;20632;-84
2021/06/05 03:58:52;;;;;;;1.60;1.43;;;17.30;96.00;;;;;;5072200;28;20776;-84
2021/06/05 04:01:22;;;;;;;1.30;1.20;;;17.30;96.00;;;;;;5072245;28;20680;-84
2021/06/05 04:03:50;;;;;;;1.77;1.40;;;17.30;95.90;;;;;;5072143;28;21168;-84
2021/06/05 04:06:19;;;;;;;2.67;1.27;;;17.30;95.80;;;;;;5071101;28;21318;-84
2021/06/05 04:08:46;;;;;;;1.50;1.40;;;17.30;95.70;;;;;;5071662;28;20623;-84
2021/06/05 04:11:15;;;;;;;1.20;1.10;;;17.40;95.90;;;;;;5083414;28;20619;-84
2021/06/05 04:13:42;;;;;;;4.13;1.87;;;17.40;96.00;;;;;;5074492;28;20677;-84
2021/06/05 04:16:09;;;;;;;1.47;1.30;;;17.50;96.10;;;;;;5071282;28;20676;-85
2021/06/05 04:18:38;;;;;;;1.20;1.07;;;17.50;95.80;;;;;;5066818;28;20696;-85
2021/06/05 04:21:08;;;;;;;3.23;1.60;;;17.60;95.80;;;;;;5070386;28;20609;-85
2021/06/05 04:23:34;;;;;;;1.47;1.37;;;17.50;96.00;;;;;;5071161;28;20693;-85
2021/06/05 04:26:01;;;;;;;2.17;1.60;;;17.60;95.90;;;;;;5070386;28;20650;-84
2021/06/05 04:28:29;;;;;;;1.80;1.70;;;17.60;95.60;;;;;;5071445;28;20638;-82
2021/06/05 04:30:57;;;;;;;1.83;1.50;;;17.60;95.80;;;;;;5071505;28;20665;-82
2021/06/05 04:33:25;;;;;;;1.80;1.70;;;17.60;96.10;;;;;;5071352;28;20704;-82
2021/06/05 04:35:52;;;;;;;1.70;1.50;;;17.50;96.00;;;;;;5070864;28;20720;-82
2021/06/05 04:38:20;;;;;;;1.27;1.17;;;17.40;96.40;;;;;;5070665;28;20631;-82
2021/06/05 04:40:47;;;;;;;1.60;1.50;;;17.50;96.50;;;;;;5071810;28;20992;-84
2021/06/05 04:43:15;;;;;;;1.70;1.40;;;17.50;96.80;;;;;;5071348;28;20616;-84
2021/06/05 04:45:43;;;;;;;1.57;1.47;;;17.50;97.10;;;;;;5070591;28;20647;-84
2021/06/05 04:48:10;;;;;;;1.60;1.50;;;17.50;97.10;;;;;;5071001;28;20600;-84
2021/06/05 04:50:39;;;;;;;1.50;1.40;;;17.60;96.80;;;;;;5071433;28;20704;-84
2021/06/05 04:53:06;;;;;;;2.93;1.97;;;17.60;96.40;;;;;;5077033;28;20607;-85
2021/06/05 04:55:33;;;;;;;2.40;1.40;;;17.60;96.30;;;;;;5090936;28;20630;-85
2021/06/05 04:57:59;;;;;;;1.80;1.70;;;17.60;96.50;;;;;;5090941;28;21216;-85
2021/06/05 05:00:29;;;;;;;1.63;1.50;;;17.60;96.40;;;;;;5073461;28;20618;-84
2021/06/05 05:02:58;;;;;;;1.47;1.37;;;17.60;96.20;;;;;;5070806;28;20611;-84
2021/06/05 05:05:24;;;;;;;2.97;2.00;;;17.70;96.20;;;;;;5069301;28;20660;-84
2021/06/05 05:07:52;;;;;;;2.73;1.53;;;17.60;96.80;;;;;;5070780;28;20655;-85
2021/06/05 05:10:20;;;;;;;3.53;1.70;;;17.70;96.90;;;;;;5080545;28;20643;-84
2021/06/05 05:12:54;;;;;;;1.70;1.60;;;17.70;97.00;;;;;;5081966;28;20612;-85
2021/06/05 05:15:22;;;;;;;2.47;1.53;;;17.70;96.70;;;;;;5079922;28;20628;-85
2021/06/05 05:17:50;;;;;;;1.67;1.57;;;17.70;96.90;;;;;;5078525;28;20619;-84
2021/06/05 05:20:21;;;;;;;1.87;1.53;;;17.70;96.80;;;;;;5078649;28;21187;-84
2021/06/05 05:22:48;;;;;;;1.70;1.60;;;17.70;96.60;;;;;;5079012;28;20638;-85
2021/06/05 05:25:16;;;;;;;1.50;1.40;;;17.80;96.80;;;;;;5079646;28;20655;-83
2021/06/05 05:27:42;;;;;;;2.90;1.60;;;17.70;97.00;;;;;;5081405;28;20662;-85
2021/06/05 05:30:13;;;;;;;3.57;2.33;;;17.80;96.90;;;;;;5073871;28;20657;-82
2021/06/05 05:32:41;;;;;;;2.30;1.20;;;17.80;96.30;;;;;;5080150;28;21048;-86
2021/06/05 05:35:10;;;;;;;2.33;1.83;;;17.70;97.40;;;;;;5082177;28;20624;-85
2021/06/05 05:37:39;;;;;;;1.70;1.60;;;17.80;97.30;;;;;;5080410;28;20657;-82
2021/06/05 05:40:07;;;;;;;1.90;1.80;;;17.80;96.70;;;;;;5079743;28;20643;-83
2021/06/05 05:42:33;;;;;;;3.30;1.60;;;17.70;96.80;;;;;;5079598;28;20612;-83
2021/06/05 05:45:00;;;;;;;3.00;1.63;;;17.70;96.80;;;;;;5077993;28;20999;-85
2021/06/05 05:47:26;;;;;;;1.37;1.27;;;17.80;97.40;;;;;;5080412;28;20681;-85
2021/06/05 05:49:53;;;;;;;1.83;1.73;;;17.80;97.20;;;;;;5078825;28;20619;-85
2021/06/05 05:52:19;;;;;;;6.90;1.50;;;18.00;96.80;;;;;;5081350;28;20613;-84
2021/06/05 05:54:47;;;;;;;1.60;1.50;;;18.10;96.10;;;;;;5079607;28;20642;-84
2021/06/05 05:57:13;;;;;;;2.13;1.90;;;18.30;96.00;;;;;;5067955;28;20656;-84
2021/06/05 05:59:40;;;;;;;1.90;1.60;;;18.30;95.20;;;;;;5070401;28;20616;-85
2021/06/05 06:02:06;;;;;;;4.60;1.60;;;18.50;95.20;;;;;;5078523;28;20969;-84
2021/06/05 06:04:33;;;;;;;2.13;1.67;;;18.50;94.70;;;;;;5081433;28;21197;-85
2021/06/05 06:06:59;;;;;;;1.77;1.67;;;18.50;94.70;;;;;;5078424;28;20659;-84
2021/06/05 06:09:26;;;;;;;1.70;1.60;;;18.60;94.70;;;;;;5087645;28;20738;-85
2021/06/05 06:11:54;;;;;;;3.93;1.70;;;18.60;94.50;;;;;;5086049;28;20194;-84
2021/06/05 06:14:21;;;;;;;3.93;1.60;;;18.70;94.30;;;;;;5086233;28;20716;-85
2021/06/05 06:16:48;;;;;;;3.03;1.70;;;18.80;94.40;;;;;;5082607;28;20625;-84
2021/06/05 06:19:14;;;;;;;2.87;2.20;;;18.70;94.20;;;;;;5104897;28;20627;-85
2021/06/05 06:21:41;;;;;;;1.60;1.50;;;18.70;94.10;;;;;;5093969;28;20950;-84
2021/06/05 06:24:09;;;;;;;2.70;1.40;;;18.70;94.60;;;;;;5094069;28;20619;-85
2021/06/05 06:26:35;;;;;;;2.13;1.67;;;18.80;94.40;;;;;;5093561;28;20658;-84
2021/06/05 06:29:08;;;;;;;1.80;1.70;;;18.80;94.70;;;;;;5094026;28;20624;-85
2021/06/05 06:31:35;;;;;;;1.90;1.50;;;18.90;94.60;;;;;;5094609;28;20628;-84
2021/06/05 06:34:01;;;;;;;2.60;1.60;;;18.90;94.60;;;;;;5086754;28;20637;-85
2021/06/05 06:36:28;;;;;;;1.53;1.43;;;18.90;94.80;;;;;;5087293;28;20624;-85
2021/06/05 06:38:55;;;;;;;2.10;1.50;;;19.00;94.50;;;;;;5084935;28;20621;-85
2021/06/05 06:41:26;;;;;;;2.37;1.97;;;19.00;94.80;;;;;;5072750;28;20601;-85
2021/06/05 06:43:53;;;;;;;1.87;1.50;;;19.10;94.50;;;;;;5073362;28;20651;-84
2021/06/05 06:46:25;;;;;;;4.37;2.20;;;19.30;94.10;;;;;;5072916;28;20657;-85
2021/06/05 06:48:52;;;;;;;1.10;1.00;;;19.40;94.10;;;;;;5074713;28;20657;-85
2021/06/05 06:51:20;;;;;;;5.97;1.53;;;19.60;94.10;;;;;;5082260;28;20617;-85
2021/06/05 06:53:47;;;;;;;2.20;1.73;;;19.70;93.90;;;;;;5081147;28;20624;-84
2021/06/05 06:56:17;;;;;;;1.47;1.37;;;19.70;92.90;;;;;;5083151;28;20621;-82
2021/06/05 06:58:43;;;;;;;1.50;1.40;;;19.80;93.20;;;;;;5081477;28;20620;-83
2021/06/05 07:01:11;;;;;;;2.30;1.70;;;20.10;92.80;;;;;;5083007;28;20654;-83
2021/06/05 07:03:39;;;;;;;1.87;1.47;;;20.20;92.50;;;;;;5092048;28;20663;-83
2021/06/05 07:06:07;;;;;;;1.70;1.37;;;20.30;92.20;;;;;;5086892;28;20688;-82
2021/06/05 07:08:35;;;;;;;1.57;1.47;;;20.30;92.60;;;;;;5084326;28;20648;-82
2021/06/05 07:11:05;;;;;;;1.60;1.50;;;20.40;92.20;;;;;;5082450;28;20642;-82
2021/06/05 07:13:32;;;;;;;1.57;1.47;;;20.10;92.70;;;;;;5088690;28;20996;-84
2021/06/05 07:16:00;;;;;;;1.50;1.40;;;20.20;93.00;;;;;;5087084;28;20624;-83
2021/06/05 07:18:29;;;;;;;1.57;1.43;;;20.30;92.00;;;;;;5079253;28;21009;-83
2021/06/05 07:20:58;;;;;;;2.60;1.50;;;20.40;92.30;;;;;;5084010;28;20621;-84
2021/06/05 07:23:28;;;;;;;2.00;1.30;;;20.30;92.00;;;;;;5082965;28;20628;-84
2021/06/05 07:25:55;;;;;;;2.50;1.30;;;20.40;91.50;;;;;;5085549;28;20655;-86
2021/06/05 07:28:24;;;;;;;1.80;1.30;;;20.50;91.20;;;;;;5087820;28;20616;-85
2021/06/05 07:30:52;;;;;;;1.30;1.20;;;20.40;91.50;;;;;;5082818;28;21328;-86
2021/06/05 07:33:20;;;;;;;3.83;1.80;;;20.60;92.10;;;;;;5092066;28;20678;-86
2021/06/05 07:35:47;;;;;;;1.30;1.20;;;20.60;90.90;;;;;;5090279;28;20610;-86
2021/06/05 07:38:16;;;;;;;1.40;1.27;;;20.70;90.30;;;;;;5091347;28;21154;-86
2021/06/05 07:40:45;;;;;;;2.13;1.93;;;20.50;90.00;;;;;;5092010;28;20626;-84
2021/06/05 07:43:12;;;;;;;1.80;1.50;;;20.40;89.00;;;;;;5086059;28;20637;-84
2021/06/05 07:45:39;;;;;;;3.80;2.42;;;20.40;90.00;;;;;;5089843;28;20779;-84
2021/06/05 07:48:07;;;;;;;2.43;1.50;;;20.40;90.00;;;;;;5091547;28;20203;-84
2021/06/05 07:50:33;;;;;;;1.40;1.30;;;20.40;89.60;;;;;;5092314;28;20610;-84
2021/06/05 07:53:00;;;;;;;1.53;1.20;;;20.40;90.00;;;;;;5092162;28;20712;-85
2021/06/05 07:55:28;;;;;;;1.53;1.43;;;20.40;90.70;;;;;;5091150;28;20613;-85
2021/06/05 07:57:54;;;;;;;2.00;1.70;;;20.40;90.50;;;;;;5092093;28;20619;-85
2021/06/05 08:00:24;;;;;;;1.50;1.40;;;20.40;90.30;;;;;;5075026;28;20625;-84
2021/06/05 08:02:51;;;;;;;1.53;1.30;;;20.20;90.80;;;;;;5072395;28;20621;-84
2021/06/05 08:05:19;;;;;;;1.87;1.63;;;20.20;91.10;;;;;;5071233;28;21522;-84
2021/06/05 08:07:46;;;;;;;1.30;1.17;;;20.50;91.70;;;;;;5072465;28;20660;-85
2021/06/05 08:10:13;;;;;;;2.10;1.60;;;20.50;91.50;;;;;;5080826;28;20609;-85
2021/06/05 08:12:41;;;;;;;2.30;1.90;;;20.40;92.20;;;;;;5076836;28;21265;-85
2021/06/05 08:15:11;;;;;;;2.80;1.50;;;20.30;92.30;;;;;;5071094;28;20618;-84
2021/06/05 08:17:38;;;;;;;2.50;1.50;;;20.40;92.20;;;;;;5072347;28;21183;-85
2021/06/05 08:20:07;;;;;;;1.70;1.53;;;20.50;92.20;;;;;;5071903;28;21231;-84
2021/06/05 08:22:34;;;;;;;1.60;1.50;;;20.50;92.50;;;;;;5071686;28;20622;-85
2021/06/05 08:25:00;;;;;;;3.20;1.67;;;20.60;93.00;;;;;;5071407;28;20652;-84
2021/06/05 08:27:27;;;;;;;1.63;1.53;;;20.70;92.20;;;;;;5070728;28;20695;-84
2021/06/05 08:29:55;;;;;;;1.83;1.40;;;20.60;92.20;;;;;;5071951;28;21025;-84
2021/06/05 08:32:22;;;;;;;1.80;1.70;;;20.60;92.40;;;;;;5071858;28;20663;-85
2021/06/05 08:34:48;;;;;;;1.70;1.60;;;20.60;91.60;;;;;;5071388;28;20634;-84
2021/06/05 08:37:15;;;;;;;4.50;1.60;;;20.80;92.20;;;;;;5071724;28;20974;-84
2021/06/05 08:39:41;;;;;;;1.83;1.37;;;20.90;92.20;;;;;;5071372;28;20630;-85
2021/06/05 08:42:12;;;;;;;1.30;1.20;;;21.10;91.80;;;;;;5071259;28;21020;-85
2021/06/05 08:44:41;;;;;;;1.93;1.73;;;21.20;90.80;;;;;;5071116;28;20627;-85
2021/06/05 08:47:13;;;;;;;1.73;1.60;;;21.30;91.10;;;;;;5073523;28;20797;-85
2021/06/05 08:49:43;;;;;;;2.20;2.10;;;21.40;90.60;;;;;;5073734;28;20699;-84
2021/06/05 08:52:14;;;;;;;1.20;1.20;;;21.20;91.10;;;;;;5076491;28;20620;-85
2021/06/05 08:54:48;;;;;;;1.60;1.30;;;21.20;91.50;;;;;;5084193;28;20715;-84
2021/06/05 08:57:29;;;;;;;1.43;1.33;;;21.40;90.70;;;;;;5082213;28;20623;-84
2021/06/05 08:59:58;;;;;;;1.27;1.17;;;21.30;90.90;;;;;;5074933;28;20627;-84
2021/06/05 09:02:28;;;;;;;4.50;1.60;;;21.40;91.70;;;;;;5071374;28;20615;-85
2021/06/05 09:04:55;;;;;;;2.33;2.13;;;21.30;91.00;;;;;;5070337;28;20625;-85
2021/06/05 09:07:23;;;;;;;1.50;1.40;;;21.30;90.90;;;;;;5070929;28;20668;-85
2021/06/05 09:09:52;;;;;;;1.97;1.43;;;21.60;90.60;;;;;;5070079;28;20651;-84
2021/06/05 09:12:20;;;;;;;2.00;1.80;;;21.60;90.30;;;;;;5078230;28;20628;-85
2021/06/05 09:14:51;;;;;;;1.60;1.50;;;21.30;90.30;;;;;;5069169;28;20620;-85
2021/06/05 09:17:19;;;;;;;4.20;1.40;;;21.20;90.80;;;;;;5069715;28;20619;-85
2021/06/05 09:20:03;;;;;;;1.80;1.70;;;21.40;91.10;;;;;;5070273;28;20612;-85
2021/06/05 09:22:34;;;;;;;2.80;1.50;;;21.50;89.30;;;;;;5092268;28;21183;-85
2021/06/05 09:25:31;;;;;;;1.57;1.30;;;21.40;89.90;;;;;;5093410;28;20600;-85
2021/06/05 09:28:22;;;;;;;1.30;1.20;;;21.60;90.00;;;;;;5087616;28;20630;-84
2021/06/05 09:30:51;;;;;;;1.70;1.60;;;21.70;89.40;;;;;;5090791;28;20620;-85
2021/06/05 09:33:30;;;;;;;6.10;2.70;;;21.90;89.00;;;;;;5090772;28;20622;-85
2021/06/05 09:36:14;;;;;;;1.40;1.30;;;22.10;88.00;;;;;;5090200;28;20666;-85
2021/06/05 09:38:48;;;;;;;1.73;1.63;;;22.30;88.70;;;;;;5084429;28;20692;-84
2021/06/05 09:41:24;;;;;;;1.60;1.50;;;22.30;88.90;;;;;;5070228;28;20611;-85
2021/06/05 09:43:53;;;;;;;2.70;1.80;;;22.40;89.10;;;;;;5070556;28;20610;-85
2021/06/05 09:46:27;;;;;;;2.70;1.40;;;22.40;86.50;;;;;;5069699;28;20779;-86
2021/06/05 09:49:11;;;;;;;1.57;1.40;;;22.60;86.80;;;;;;5069889;28;20636;-85
2021/06/05 09:51:40;;;;;;;1.43;1.30;;;22.30;86.10;;;;;;5070598;28;20632;-85
2021/06/05 09:54:11;;;;;;;1.30;1.20;;;22.30;87.40;;;;;;5085807;28;20655;-85
2021/06/05 09:56:39;;;;;;;1.30;1.20;;;22.30;87.60;;;;;;5089023;28;20607;-86
2021/06/05 09:59:15;;;;;;;4.10;1.50;;;22.20;87.30;;;;;;5076347;28;20626;-85
2021/06/05 10:01:44;;;;;;;1.40;1.30;;;21.90;86.50;;;;;;5081053;28;20614;-86
2021/06/05 10:04:16;;;;;;;1.30;1.20;;;21.80;87.90;;;;;;5082051;28;20623;-87
2021/06/05 10:06:48;;;;;;;1.73;1.43;;;21.70;89.40;;;;;;5079822;28;20662;-85
2021/06/05 10:09:35;;;;;;;2.37;1.60;;;21.80;90.70;;;;;;5064238;28;20656;-85
2021/06/05 10:12:05;;;;;;;1.50;1.40;;;21.70;90.20;;;;;;5078226;28;20973;-85
2021/06/05 10:14:51;;;;;;;2.77;1.40;;;21.40;89.90;;;;;;5077931;28;20736;-85
2021/06/05 10:17:25;;;;;;;2.07;1.87;;;21.50;90.70;;;;;;5060915;28;21173;-85
2021/06/05 10:19:54;;;;;;;1.90;1.80;;;21.70;91.40;;;;;;5067492;28;20629;-85
2021/06/05 10:22:23;;;;;;;1.67;1.57;;;21.40;92.10;;;;;;5068237;28;20670;-85
2021/06/05 10:24:55;;;;;;;3.00;1.90;;;21.50;92.30;;;;;;5068406;28;21218;-84
2021/06/05 10:27:27;;;;;;;2.33;2.13;;;21.40;92.70;;;;;;5069515;28;20666;-84
2021/06/05 10:29:58;;;;;;;1.97;1.77;;;21.60;93.70;;;;;;5069672;28;20985;-84
2021/06/05 10:32:30;;;;;;;2.50;1.83;;;21.40;93.50;;;;;;5077803;28;20670;-84
2021/06/05 10:35:02;;;;;;;1.60;1.37;;;21.30;94.60;;;;;;5084592;28;20610;-84
2021/06/05 10:37:32;;;;;;;2.30;1.77;;;21.20;94.00;;;;;;5079994;28;20618;-84
2021/06/05 10:40:02;;;;;;;1.93;1.60;;;21.10;93.50;;;;;;5079740;28;20627;-84
2021/06/05 10:42:37;;;;;;;1.93;1.80;;;21.20;95.10;;;;;;5079934;28;20965;-84
2021/06/05 10:45:06;;;;;;;3.13;2.37;;;21.30;95.00;;;;;;5083428;28;21191;-85
2021/06/05 10:47:45;;;;;;;2.23;1.87;;;21.30;94.60;;;;;;5089806;28;20686;-85
2021/06/05 10:50:18;;;;;;;2.40;2.20;;;21.30;95.40;;;;;;5091882;28;20617;-85
2021/06/05 10:52:51;;;;;;;1.90;1.80;;;21.30;94.90;;;;;;5093839;28;20630;-85
2021/06/05 10:55:24;;;;;;;2.10;1.50;;;21.40;94.40;;;;;;5091431;28;21226;-84
2021/06/05 10:58:20;;;;;;;2.10;1.97;;;21.60;94.20;;;;;;5094598;28;20606;-84
2021/06/05 11:00:51;;;;;;;2.17;2.07;;;21.60;94.00;;;;;;5091565;28;20663;-84
2021/06/05 11:03:47;;;;;;;2.60;2.40;;;21.80;93.40;;;;;;5094397;28;21177;-85
2021/06/05 11:06:15;;;;;;;1.70;1.60;;;21.80;92.40;;;;;;5082573;28;21022;-85
2021/06/05 11:08:48;;;;;;;2.47;2.27;;;22.00;92.70;;;;;;5094137;28;20623;-85
2021/06/05 11:11:40;;;;;;;2.63;2.20;;;21.80;92.60;;;;;;5094133;28;21172;-84
2021/06/05 11:14:50;;;;;;;1.80;1.50;;;21.60;93.90;;;;;;5088500;28;20721;-85
2021/06/05 11:17:31;;;;;;;1.77;1.67;;;21.80;93.40;;;;;;5085053;28;20631;-84
2021/06/05 11:20:27;;;;;;;2.50;1.50;;;22.00;93.40;;;;;;5077973;28;20992;-84
2021/06/05 11:23:33;;;;;;;2.10;1.83;;;21.90;92.60;;;;;;5074541;28;21123;-85
2021/06/05 11:26:38;;;;;;;2.10;1.33;;;21.60;92.80;;;;;;5073354;28;20655;-85
2021/06/05 11:29:44;;;;;;;1.60;1.50;;;21.80;92.50;;;;;;5083037;28;20620;-85
2021/06/05 11:32:35;;;;;;;3.77;1.83;;;21.80;92.00;;;;;;5083681;28;20659;-85
2021/06/05 11:35:09;;;;;;;2.17;2.07;;;22.00;91.70;;;;;;5082194;28;20647;-86
2021/06/05 11:37:52;;;;;;;2.70;1.80;;;22.20;91.20;;;;;;5083821;28;20627;-85
2021/06/05 11:40:58;;;;;;;2.10;1.63;;;22.30;91.30;;;;;;5091130;28;20632;-86
2021/06/05 11:43:52;;;;;;;2.07;1.30;;;22.50;90.90;;;;;;5083611;28;20975;-85
2021/06/05 11:46:55;;;;;;;2.90;1.67;;;22.60;90.50;;;;;;5074427;28;20651;-85
2021/06/05 11:49:46;;;;;;;2.03;1.93;;;23.00;90.10;;;;;;5092215;28;20612;-86
2021/06/05 11:52:44;;;;;;;2.37;1.83;;;23.30;90.00;;;;;;5092203;28;20661;-85
2021/06/05 11:55:38;;;;;;;1.80;1.70;;;23.00;87.80;;;;;;5087109;28;20655;-85
2021/06/05 11:58:30;;;;;;;1.83;1.73;;;22.70;87.60;;;;;;5092014;28;20628;-85
2021/06/05 12:01:21;;;;;;;2.00;1.90;;;22.50;89.30;;;;;;5070996;28;20980;-85
2021/06/05 12:03:51;;;;;;;1.93;1.73;;;22.30;90.50;;;;;;5089571;28;20627;-85
2021/06/05 12:06:31;;;;;;;2.60;2.20;;;22.30;90.30;;;;;;5073038;28;20716;-85
2021/06/05 12:09:12;;;;;;;3.87;2.00;;;22.20;90.40;;;;;;5072480;28;20619;-85
2021/06/05 12:11:42;;;;;;;1.73;1.63;;;22.30;90.60;;;;;;5081103;28;21080;-86
2021/06/05 12:14:15;;;;;;;1.80;1.70;;;22.50;89.60;;;;;;5072817;28;20650;-85
2021/06/05 12:16:51;;;;;;;1.63;1.53;;;22.50;90.40;;;;;;5078795;28;20650;-85
2021/06/05 12:19:18;;;;;;;1.80;1.70;;;22.60;88.50;;;;;;5092558;28;21171;-85
2021/06/05 12:21:46;;;;;;;2.90;1.23;;;23.20;89.90;;;;;;5092517;28;20661;-86
2021/06/05 12:24:19;;;;;;;1.63;1.53;;;23.60;87.40;;;;;;5092859;28;20625;-85
2021/06/05 12:26:52;;;;;;;2.87;1.57;;;23.60;87.30;;;;;;5092355;28;20645;-86
2021/06/05 12:29:24;;;;;;;1.40;1.30;;;23.80;85.40;;;;;;5091482;28;20627;-85
2021/06/05 12:31:53;;;;;;;1.50;1.40;;;23.90;83.40;;;;;;5095408;28;20627;-87
2021/06/05 12:34:32;;;;;;;1.30;1.20;;;23.70;83.80;;;;;;5101980;28;21013;-85
2021/06/05 12:37:02;;;;;;;2.10;1.20;;;23.80;81.20;;;;;;5091929;28;20629;-85
2021/06/05 12:39:44;;;;;;;2.00;1.30;;;23.70;80.90;;;;;;5079603;28;21202;-85
2021/06/05 12:42:13;;;;;;;1.17;1.17;;;24.00;81.00;;;;;;5072529;28;20728;-85
2021/06/05 12:44:42;;;;;;;1.33;1.17;;;24.10;81.00;;;;;;5072185;28;20617;-86
2021/06/05 12:47:11;;;;;;;1.27;1.20;;;24.50;78.70;;;;;;5071945;28;21090;-86
2021/06/05 12:49:39;;;;;;;1.00;1.00;;;24.30;79.60;;;;;;5071908;28;20649;-85
2021/06/05 12:52:14;;;;;;;1.10;1.10;;;25.00;79.40;;;;;;5085827;28;20621;-86
2021/06/05 12:54:43;;;;;;;1.73;1.10;;;25.70;76.50;;;;;;5087821;28;21176;-86
2021/06/05 12:57:26;;;;;;;1.10;1.10;;;26.20;71.60;;;;;;5075502;28;20617;-87
2021/06/05 12:59:54;;;;;;;1.00;1.00;;;26.70;69.50;;;;;;5085767;28;20644;-87
2021/06/05 13:02:26;;;;;;;1.27;1.17;;;26.60;69.80;;;;;;5091093;28;20629;-88
2021/06/05 13:04:54;;;;;;;0.93;0.93;;;26.20;72.40;;;;;;5083975;28;20629;-87
2021/06/05 13:07:33;;;;;;;0.80;0.80;;;25.70;72.50;;;;;;5090969;28;20660;-86
2021/06/05 13:10:19;;;;;;;1.37;0.90;;;25.60;73.20;;;;;;5082994;28;20644;-86